Time;durP1;ratioP1;P1;durP2;ratioP2;P2;SDS_P1;SDS_P2;PMS_P1;PMS_P2;Temp;Humidity;BMP_temperature;BMP_pressure;BME280_temperature;BME280_humidity;BME280_pressure;Samples;Min_cycle;Max_cycle;Signal;HPM_P1;HPM_P2
2023/02/05 00:00:43;;;;;;;9.13;1.63;;;;;;;2.01;77.92;96719.34;4986738;28;20106;-54
2023/02/05 00:03:09;;;;;;;3.15;0.50;;;;;;;2.15;77.44;96767.19;4986292;28;20078;-55
2023/02/05 00:05:36;;;;;;;0.52;0.52;;;;;;;1.98;78.38;96760.94;4986623;28;20053;-54
2023/02/05 00:08:03;;;;;;;0.40;0.40;;;;;;;2.00;85.10;96783.28;4986313;28;20517;-54
2023/02/05 00:10:29;;;;;;;7.03;0.80;;;;;;;1.77;91.51;96781.84;4985012;28;20124;-53
2023/02/05 00:12:56;;;;;;;0.40;0.40;;;;;;;1.56;97.34;96800.75;4984625;28;20054;-53
2023/02/05 00:15:23;;;;;;;0.50;0.50;;;;;;;1.14;100.00;96798.72;4986166;28;20142;-54
2023/02/05 00:17:49;;;;;;;0.30;0.30;;;;;;;0.95;100.00;96820.78;4981954;28;20112;-53
2023/02/05 00:20:16;;;;;;;1.88;0.98;;;;;;;0.56;100.00;96795.41;4986540;28;20133;-53
2023/02/05 00:22:43;;;;;;;1.52;0.90;;;;;;;0.60;100.00;96816.28;4984807;28;20054;-54
2023/02/05 00:25:09;;;;;;;3.83;0.82;;;;;;;0.54;100.00;96814.81;4986534;28;20168;-53
2023/02/05 00:27:36;;;;;;;4.68;1.45;;;;;;;0.57;100.00;96846.09;4985938;28;20101;-52
2023/02/05 00:30:03;;;;;;;7.32;0.70;;;;;;;0.65;100.00;96837.94;4985903;28;20090;-54
2023/02/05 00:32:29;;;;;;;0.70;0.70;;;;;;;0.72;100.00;96842.97;4985921;28;20058;-53
2023/02/05 00:34:56;;;;;;;2.63;1.70;;;;;;;0.38;100.00;96854.44;4984743;28;20108;-55
2023/02/05 00:37:22;;;;;;;0.85;0.60;;;;;;;0.54;100.00;96858.41;4985526;28;20133;-55
2023/02/05 00:39:49;;;;;;;1.05;0.90;;;;;;;0.28;100.00;96854.72;4986075;28;20098;-54
2023/02/05 00:42:16;;;;;;;1.55;0.93;;;;;;;-0.04;100.00;96792.31;4985597;28;20108;-53
2023/02/05 00:44:43;;;;;;;0.40;0.40;;;;;;;0.47;100.00;96871.66;4986272;28;20058;-54
2023/02/05 00:47:09;;;;;;;0.95;0.50;;;;;;;0.41;100.00;96875.59;4985196;28;20584;-53
2023/02/05 00:49:36;;;;;;;0.40;0.40;;;;;;;0.49;100.00;96865.91;4986194;28;20547;-52
2023/02/05 00:52:03;;;;;;;0.40;0.40;;;;;;;0.64;100.00;96933.63;4985945;28;20081;-56
2023/02/05 00:54:30;;;;;;;0.30;0.30;;;;;;;0.53;100.00;96796.84;4984192;28;20054;-56
2023/02/05 00:56:57;;;;;;;0.30;0.30;;;;;;;0.99;100.00;96846.31;4985158;28;20414;-56
2023/02/05 00:59:23;;;;;;;0.30;0.30;;;;;;;0.98;99.38;96831.06;4984020;28;20125;-56
2023/02/05 01:01:50;;;;;;;0.30;0.30;;;;;;;1.31;97.60;96850.63;4984781;28;20081;-57
2023/02/05 01:04:17;;;;;;;0.35;0.35;;;;;;;1.29;94.98;96840.03;4985259;28;20137;-56
2023/02/05 01:06:43;;;;;;;0.30;0.30;;;;;;;1.25;95.25;96830.84;4985384;28;20120;-56
2023/02/05 01:09:10;;;;;;;0.30;0.30;;;;;;;1.55;93.88;96862.72;4985515;28;20085;-56
2023/02/05 01:11:36;;;;;;;0.30;0.30;;;;;;;1.20;92.54;96784.63;4985741;28;20613;-55
2023/02/05 01:14:03;;;;;;;0.30;0.30;;;;;;;1.54;92.76;96806.53;4984159;28;20050;-55
2023/02/05 01:16:30;;;;;;;0.40;0.40;;;;;;;2.02;93.05;96879.38;4985441;28;20081;-55
2023/02/05 01:18:57;;;;;;;0.30;0.30;;;;;;;1.95;91.77;96865.34;4985588;28;20113;-56
2023/02/05 01:21:24;;;;;;;0.30;0.30;;;;;;;-0.73;91.80;96436.66;4985252;28;20058;-56
2023/02/05 01:23:51;;;;;;;5.32;2.15;;;;;;;2.14;91.43;96885.00;4985245;28;20050;-55
2023/02/05 01:26:18;;;;;;;0.60;0.60;;;;;;;2.14;90.97;96874.06;4985030;28;20090;-55
2023/02/05 01:28:44;;;;;;;0.40;0.40;;;;;;;1.73;88.34;96884.59;4984974;28;20137;-56
2023/02/05 01:31:11;;;;;;;1.98;0.55;;;;;;;1.68;86.81;96882.00;4983799;28;20058;-56
2023/02/05 01:33:38;;;;;;;0.30;0.30;;;;;;;1.27;84.97;96850.44;4983528;28;20049;-57
2023/02/05 01:36:05;;;;;;;4.47;0.52;;;;;;;0.83;83.56;96790.59;4985004;28;20050;-56
2023/02/05 01:38:31;;;;;;;0.30;0.30;;;;;;;1.60;83.24;96891.78;4984761;28;20140;-55
2023/02/05 01:40:58;;;;;;;0.40;0.40;;;;;;;1.65;81.85;96878.00;4985025;28;20077;-55
2023/02/05 01:43:26;;;;;;;0.30;0.30;;;;;;;1.72;81.76;96894.72;4984795;28;20729;-55
2023/02/05 01:46:22;;;;;;;0.40;0.40;;;;;;;1.81;79.77;96909.19;4984984;28;20063;-55
2023/02/05 01:48:53;;;;;;;0.30;0.30;;;;;;;1.81;80.36;96920.13;4984901;28;20069;-55
2023/02/05 01:51:22;;;;;;;1.95;1.85;;;;;;;1.66;80.26;96914.31;4984956;28;20082;-55
2023/02/05 01:53:49;;;;;;;0.30;0.30;;;;;;;1.58;79.64;96910.44;4983454;28;20132;-55
2023/02/05 01:56:28;;;;;;;0.30;0.30;;;;;;;1.77;80.32;96924.59;4984783;28;20046;-55
2023/02/05 01:59:08;;;;;;;0.57;0.50;;;;;;;0.71;79.81;96820.34;4984646;28;20042;-56
2023/02/05 02:01:36;;;;;;;0.63;0.63;;;;;;;0.39;79.45;96817.94;4983432;28;20078;-55
2023/02/05 02:04:03;;;;;;;1.60;0.50;;;;;;;1.01;81.50;96934.03;4983134;28;20145;-55
2023/02/05 02:06:32;;;;;;;0.38;0.38;;;;;;;1.11;83.52;96936.53;4985184;28;20870;-54
2023/02/05 02:09:00;;;;;;;0.38;0.35;;;;;;;0.75;84.90;96908.56;4983435;28;20050;-55
2023/02/05 02:11:31;;;;;;;0.43;0.40;;;;;;;0.85;88.06;96943.75;4984899;28;20104;-56
2023/02/05 02:14:01;;;;;;;0.40;0.40;;;;;;;0.47;90.29;96877.13;4986822;28;20512;-55
2023/02/05 02:16:29;;;;;;;7.53;0.50;;;;;;;0.82;90.87;96951.75;4988290;28;20062;-56
2023/02/05 02:18:56;;;;;;;0.30;0.30;;;;;;;0.51;92.91;96913.50;4988503;28;20081;-55
2023/02/05 02:21:44;;;;;;;1.50;0.70;;;;;;;0.64;92.23;96972.59;4988248;28;20494;-55
2023/02/05 02:24:10;;;;;;;0.90;0.75;;;;;;;0.41;93.62;96957.31;4987806;28;20745;-55
2023/02/05 02:26:43;;;;;;;0.52;0.45;;;;;;;0.23;93.59;96963.75;4988161;28;20054;-55
2023/02/05 02:29:18;;;;;;;0.40;0.40;;;;;;;0.25;93.27;96975.16;4988081;28;20058;-57
2023/02/05 02:32:11;;;;;;;3.58;0.77;;;;;;;0.24;92.46;96973.53;4986893;28;20454;-55
2023/02/05 02:34:46;;;;;;;1.70;0.50;;;;;;;0.12;92.57;96970.53;4987775;28;20548;-56
2023/02/05 02:37:24;;;;;;;0.30;0.30;;;;;;;0.12;94.69;96975.97;4987902;28;20089;-53
2023/02/05 02:40:05;;;;;;;0.30;0.30;;;;;;;-0.14;95.39;96928.63;4987990;28;20073;-53
2023/02/05 02:42:45;;;;;;;0.30;0.30;;;;;;;0.23;95.15;96954.78;4988152;28;20050;-53
2023/02/05 02:45:13;;;;;;;0.30;0.30;;;;;;;0.28;95.11;96984.63;4987905;28;20144;-54
2023/02/05 02:47:50;;;;;;;0.30;0.30;;;;;;;0.41;93.97;96984.56;4986820;28;20054;-54
2023/02/05 02:50:31;;;;;;;0.40;0.40;;;;;;;0.33;93.03;96985.31;4987824;28;20050;-57
2023/02/05 02:53:07;;;;;;;0.30;0.30;;;;;;;0.39;92.87;96986.00;4987927;28;20081;-53
2023/02/05 02:55:37;;;;;;;0.30;0.30;;;;;;;-0.18;92.67;96941.25;4987697;28;20543;-56
2023/02/05 02:58:07;;;;;;;0.70;0.70;;;;;;;0.23;92.50;96993.72;4987600;28;20124;-55
2023/02/05 03:00:38;;;;;;;0.30;0.30;;;;;;;0.20;92.12;97005.22;4985955;28;20090;-55
2023/02/05 03:03:08;;;;;;;0.30;0.30;;;;;;;0.01;94.27;97001.81;4987405;28;20064;-55
2023/02/05 03:05:36;;;;;;;0.30;0.30;;;;;;;0.02;95.60;97008.06;4987338;28;20050;-55
2023/02/05 03:08:10;;;;;;;20.73;1.05;;;;;;;-0.06;96.69;97015.81;4987732;28;20105;-56
2023/02/05 03:10:57;;;;;;;0.30;0.30;;;;;;;0.07;98.08;97006.03;4987247;28;20054;-54
2023/02/05 03:13:24;;;;;;;0.30;0.30;;;;;;;-0.25;98.27;96965.31;4987644;28;20137;-57
2023/02/05 03:15:51;;;;;;;0.30;0.30;;;;;;;-0.10;99.33;96973.19;4988101;28;20109;-53
2023/02/05 03:18:18;;;;;;;0.60;0.60;;;;;;;-0.67;99.33;96969.16;4987797;28;20145;-53
2023/02/05 03:20:55;;;;;;;0.68;0.40;;;;;;;-0.11;97.88;97020.56;4987109;28;20058;-54
2023/02/05 03:23:23;;;;;;;2.20;0.85;;;;;;;-0.69;94.84;96975.97;4987276;28;20128;-55
2023/02/05 03:25:49;;;;;;;0.40;0.40;;;;;;;-0.24;93.98;97024.09;4987093;28;20094;-54
2023/02/05 03:28:16;;;;;;;0.38;0.38;;;;;;;-0.36;94.53;97034.66;4987418;28;20082;-56
2023/02/05 03:30:58;;;;;;;4.65;1.15;;;;;;;-0.54;94.24;97005.63;4987110;28;20137;-55
2023/02/05 03:33:45;;;;;;;0.77;0.70;;;;;;;-0.66;97.15;97029.78;4987134;28;20141;-54
2023/02/05 03:36:50;;;;;;;2.28;0.60;;;;;;;-0.71;100.00;97040.75;4987125;28;20411;-55
2023/02/05 03:39:29;;;;;;;0.40;0.40;;;;;;;-0.63;100.00;97040.03;4975979;28;20058;-56
2023/02/05 03:42:09;;;;;;;0.30;0.30;;;;;;;-0.57;100.00;97049.75;4967675;28;20055;-54
2023/02/05 03:45:10;;;;;;;0.75;0.75;;;;;;;-0.64;100.00;97049.31;4967941;28;20086;-54
2023/02/05 03:48:11;;;;;;;0.82;0.45;;;;;;;-0.72;100.00;97050.00;4967457;28;20051;-55
2023/02/05 03:51:10;;;;;;;0.73;0.50;;;;;;;-0.78;100.00;97064.78;4965658;28;20154;-55
2023/02/05 03:54:06;;;;;;;0.50;0.50;;;;;;;-1.36;100.00;96982.06;4967382;28;20154;-55
2023/02/05 03:56:49;;;;;;;0.32;0.32;;;;;;;-1.10;100.00;97018.56;4967201;28;20129;-56
2023/02/05 03:59:17;;;;;;;0.30;0.30;;;;;;;-0.75;100.00;97064.19;4967958;28;20138;-55
2023/02/05 04:01:45;;;;;;;0.75;0.75;;;;;;;-0.73;100.00;97075.59;4966291;28;20606;-56
2023/02/05 04:04:13;;;;;;;0.50;0.50;;;;;;;-0.84;99.28;97061.38;4967188;28;20062;-55
2023/02/05 04:06:39;;;;;;;1.63;0.85;;;;;;;-0.91;94.96;97051.97;4966875;28;20067;-54
2023/02/05 04:09:06;;;;;;;0.40;0.40;;;;;;;-0.60;94.19;97077.56;4965853;28;20082;-55
2023/02/05 04:11:33;;;;;;;3.92;0.70;;;;;;;-0.56;90.60;97078.56;4966551;28;20047;-56
2023/02/05 04:14:00;;;;;;;1.08;0.85;;;;;;;-0.83;89.22;97045.84;4967304;28;20063;-55
2023/02/05 04:16:26;;;;;;;0.30;0.30;;;;;;;-0.72;89.51;97047.28;4966931;28;20510;-56
2023/02/05 04:18:53;;;;;;;2.67;1.00;;;;;;;-0.60;87.78;97088.44;4986127;28;20058;-56
2023/02/05 04:21:20;;;;;;;1.73;0.60;;;;;;;-1.46;85.80;96976.78;4986242;28;20500;-56
2023/02/05 04:23:46;;;;;;;0.30;0.30;;;;;;;-1.12;86.13;97039.81;4985165;28;20046;-56
2023/02/05 04:26:13;;;;;;;1.50;0.90;;;;;;;-1.16;86.09;97057.81;4986145;28;20050;-53
2023/02/05 04:28:39;;;;;;;2.15;0.70;;;;;;;-1.21;86.82;97069.56;4985200;28;20599;-53
2023/02/05 04:31:07;;;;;;;3.03;1.48;;;;;;;-1.00;86.43;97100.78;4984791;28;20054;-54
2023/02/05 04:33:34;;;;;;;1.70;1.35;;;;;;;-1.19;84.90;97115.44;4986562;28;20319;-53
2023/02/05 04:36:01;;;;;;;0.70;0.70;;;;;;;-1.34;86.26;97083.09;4985647;28;20054;-53
2023/02/05 04:38:28;;;;;;;2.60;1.27;;;;;;;-1.20;86.03;97113.84;4986254;28;20116;-54
2023/02/05 04:40:54;;;;;;;2.67;1.75;;;;;;;-1.44;84.69;97110.38;4985553;28;20089;-53
2023/02/05 04:43:21;;;;;;;10.07;2.45;;;;;;;-1.67;84.41;97085.69;4985879;28;20155;-53
2023/02/05 04:45:47;;;;;;;0.88;0.88;;;;;;;-1.42;85.47;97167.94;4984602;28;20058;-53
2023/02/05 04:48:14;;;;;;;3.60;1.55;;;;;;;-2.08;83.93;97079.16;4985756;28;20050;-53
2023/02/05 04:50:41;;;;;;;3.92;1.38;;;;;;;-1.52;84.32;97142.50;4985783;28;20133;-53
2023/02/05 04:53:07;;;;;;;5.22;1.30;;;;;;;-1.49;85.35;97151.19;4985364;28;20137;-56
2023/02/05 04:55:34;;;;;;;1.05;0.95;;;;;;;-1.60;86.31;97153.22;4985165;28;20090;-53
2023/02/05 04:58:01;;;;;;;3.00;1.50;;;;;;;-1.88;86.16;97138.59;4985261;28;20053;-52
2023/02/05 05:00:28;;;;;;;3.03;1.30;;;;;;;-1.63;87.07;97156.50;4985356;28;20058;-53
2023/02/05 05:02:55;;;;;;;2.80;1.23;;;;;;;-1.64;85.99;97163.84;4984840;28;20141;-54
2023/02/05 05:05:22;;;;;;;0.50;0.50;;;;;;;-1.60;84.85;97183.09;4985193;28;20042;-53
2023/02/05 05:07:49;;;;;;;5.97;1.58;;;;;;;-1.81;83.63;97154.53;4985096;28;20065;-54
2023/02/05 05:10:15;;;;;;;4.90;2.05;;;;;;;-2.45;84.94;97076.28;4984029;28;20105;-53
2023/02/05 05:12:42;;;;;;;4.35;1.65;;;;;;;-1.78;85.89;97176.50;4984555;28;20054;-54
2023/02/05 05:15:09;;;;;;;2.92;1.48;;;;;;;-2.15;85.89;97118.56;4983532;28;20140;-54
2023/02/05 05:17:35;;;;;;;0.80;0.50;;;;;;;-1.62;86.37;97202.38;4983717;28;20429;-54
2023/02/05 05:20:03;;;;;;;6.88;2.33;;;;;;;-1.98;84.71;97182.16;4983791;28;20125;-54
2023/02/05 05:22:29;;;;;;;2.92;2.00;;;;;;;-1.93;85.96;97195.66;4983786;28;20129;-54
2023/02/05 05:24:56;;;;;;;4.72;2.45;;;;;;;-2.02;84.63;97196.56;4985223;28;20461;-53
2023/02/05 05:27:23;;;;;;;0.30;0.30;;;;;;;-2.06;86.44;97206.38;4983556;28;20474;-54
2023/02/05 05:29:50;;;;;;;3.72;2.00;;;;;;;-2.55;86.42;97146.88;4984151;28;20061;-55
2023/02/05 05:32:16;;;;;;;1.20;0.98;;;;;;;-2.25;87.80;97198.16;4985083;28;20137;-56
2023/02/05 05:34:43;;;;;;;3.83;2.28;;;;;;;-2.27;89.43;97215.78;4983552;28;20547;-54
2023/02/05 05:37:10;;;;;;;0.75;0.52;;;;;;;-2.24;89.27;97216.03;4926105;28;20232;-54
2023/02/05 05:45:07;;;;;;;1.25;0.98;;;;;;;-2.20;81.23;97217.09;4965350;28;20144;-57
2023/02/05 05:47:34;;;;;;;1.48;1.20;;;;;;;-2.16;80.49;97220.84;4965162;28;20594;-57
2023/02/05 05:50:01;;;;;;;1.75;0.60;;;;;;;-2.07;81.92;97231.91;4963719;28;20148;-54
2023/02/05 05:52:27;;;;;;;2.03;1.17;;;;;;;-2.09;81.48;97228.66;4964566;28;20110;-54
2023/02/05 05:54:57;;;;;;;3.97;1.45;;;;;;;-2.18;77.29;97231.16;4965439;28;20134;-54
2023/02/05 05:57:24;;;;;;;2.67;1.30;;;;;;;-2.81;78.58;97172.56;4963580;28;20051;-53
2023/02/05 05:59:51;;;;;;;0.98;0.60;;;;;;;-2.05;79.29;97257.66;4965141;28;20181;-53
2023/02/05 06:02:18;;;;;;;1.42;0.98;;;;;;;-2.68;80.70;97173.81;4964671;28;20477;-54
2023/02/05 06:04:44;;;;;;;4.65;1.27;;;;;;;-2.84;82.63;97167.72;4965726;28;20644;-54
2023/02/05 06:07:11;;;;;;;2.10;1.65;;;;;;;-2.33;83.74;97272.00;4963170;28;20208;-53
2023/02/05 06:09:38;;;;;;;2.20;1.17;;;;;;;-2.59;86.52;97229.88;4965351;28;20051;-55
2023/02/05 06:12:05;;;;;;;2.08;1.27;;;;;;;-2.68;87.42;97204.47;4965184;28;20108;-53
2023/02/05 06:14:31;;;;;;;0.95;0.90;;;;;;;-2.24;89.08;97335.38;4963664;28;20481;-54
2023/02/05 06:16:58;;;;;;;0.30;0.30;;;;;;;-2.84;88.77;97211.06;4965447;28;20473;-54
2023/02/05 06:19:25;;;;;;;2.55;1.63;;;;;;;-2.16;88.20;97285.94;4965349;28;20051;-54
2023/02/05 06:21:51;;;;;;;0.40;0.40;;;;;;;-2.11;88.74;97277.78;4964853;28;20128;-55
2023/02/05 06:24:18;;;;;;;1.38;0.88;;;;;;;-2.12;85.14;97284.28;4964999;28;20047;-54
2023/02/05 06:26:44;;;;;;;2.55;1.35;;;;;;;-1.89;84.51;97305.28;4964504;28;20758;-54
2023/02/05 06:29:11;;;;;;;1.58;0.90;;;;;;;-1.81;83.38;97320.94;4965151;28;20054;-54
2023/02/05 06:31:38;;;;;;;2.70;1.50;;;;;;;-2.02;80.55;97321.38;4964657;28;20495;-54
2023/02/05 06:34:04;;;;;;;3.72;1.38;;;;;;;-2.31;80.50;97275.22;4963254;28;20058;-54
2023/02/05 06:36:31;;;;;;;2.42;1.42;;;;;;;-1.90;79.51;97319.91;4964572;28;20105;-54
2023/02/05 06:38:58;;;;;;;3.50;2.72;;;;;;;-2.13;75.34;97288.09;4964795;28;20234;-54
2023/02/05 06:41:24;;;;;;;0.65;0.60;;;;;;;-2.75;73.65;97171.44;4964504;28;20097;-55
2023/02/05 06:43:51;;;;;;;2.45;0.77;;;;;;;-1.92;76.54;97330.28;4964904;28;20039;-55
2023/02/05 06:46:18;;;;;;;2.65;1.27;;;;;;;-1.99;77.40;97327.06;4964479;28;20113;-55
2023/02/05 06:48:44;;;;;;;4.78;1.85;;;;;;;-2.00;76.39;97320.03;4964890;28;20494;-54
2023/02/05 06:51:12;;;;;;;3.40;0.95;;;;;;;-1.85;77.77;97332.66;4964255;28;20047;-54
2023/02/05 06:53:39;;;;;;;7.38;2.40;;;;;;;-2.47;77.25;97249.31;4964322;28;20506;-53
2023/02/05 06:56:06;;;;;;;0.30;0.30;;;;;;;-2.20;77.77;97309.34;4965090;28;20053;-55
2023/02/05 06:58:32;;;;;;;2.03;0.98;;;;;;;-1.81;78.19;97337.22;4964663;28;20051;-54
2023/02/05 07:01:00;;;;;;;2.10;0.88;;;;;;;-1.60;79.26;97356.88;4966910;28;20058;-54
2023/02/05 07:03:27;;;;;;;0.55;0.55;;;;;;;-1.82;79.30;97354.59;4967866;28;20174;-54
2023/02/05 07:05:53;;;;;;;1.85;1.75;;;;;;;-1.83;76.90;97352.16;4967960;28;20154;-54
2023/02/05 07:08:20;;;;;;;0.40;0.40;;;;;;;-1.88;75.19;97301.44;4967775;28;20506;-55
2023/02/05 07:10:46;;;;;;;1.48;1.13;;;;;;;-1.62;75.31;97376.16;4955988;28;20047;-53
2023/02/05 07:13:13;;;;;;;0.30;0.30;;;;;;;-1.79;75.55;97316.03;4948743;28;20055;-53
2023/02/05 07:15:40;;;;;;;2.83;1.20;;;;;;;-1.47;74.79;97364.34;4947277;29;20075;-57
2023/02/05 07:18:09;;;;;;;0.80;0.73;;;;;;;-1.42;73.91;97379.81;4948924;28;20058;-55
2023/02/05 07:20:36;;;;;;;1.30;0.88;;;;;;;-1.69;72.72;97353.94;4948842;28;20047;-54
2023/02/05 07:23:04;;;;;;;1.63;1.27;;;;;;;-1.86;74.13;97320.97;4958865;28;20085;-54
2023/02/05 07:25:36;;;;;;;0.60;0.60;;;;;;;-2.02;74.07;97353.94;4967776;28;20078;-54
2023/02/05 07:28:04;;;;;;;0.50;0.40;;;;;;;-1.49;72.47;97395.59;4966335;28;20080;-54
2023/02/05 07:30:31;;;;;;;0.50;0.50;;;;;;;-1.37;72.96;97385.16;4967139;28;20154;-54
2023/02/05 07:32:59;;;;;;;12.07;0.95;;;;;;;-1.28;71.64;97391.63;4966907;28;20051;-54
2023/02/05 07:35:26;;;;;;;1.80;1.05;;;;;;;-1.88;68.17;97344.88;4966058;28;20105;-55
2023/02/05 07:37:52;;;;;;;1.55;0.65;;;;;;;-1.33;69.26;97394.38;4967153;28;20062;-54
2023/02/05 07:40:19;;;;;;;0.60;0.60;;;;;;;-1.74;68.13;97324.13;4966872;28;20105;-54
2023/02/05 07:42:46;;;;;;;0.30;0.30;;;;;;;-1.05;67.55;97379.97;4957550;28;20489;-54
2023/02/05 07:45:12;;;;;;;0.70;0.50;;;;;;;-1.19;66.45;97368.16;4963928;28;20150;-54
2023/02/05 07:47:39;;;;;;;2.22;0.85;;;;;;;-1.41;66.17;97375.97;4952557;28;20422;-54
2023/02/05 07:50:06;;;;;;;1.20;0.50;;;;;;;-1.49;64.27;97369.25;4966757;28;20066;-54
2023/02/05 07:52:33;;;;;;;0.77;0.77;;;;;;;-1.46;64.64;97384.16;4967149;28;20097;-56
2023/02/05 07:55:00;;;;;;;0.75;0.40;;;;;;;-1.37;65.14;97355.28;4967037;28;20062;-54
2023/02/05 07:57:27;;;;;;;0.77;0.50;;;;;;;-1.14;63.82;97376.25;4967596;28;20579;-55
2023/02/05 07:59:54;;;;;;;1.60;0.73;;;;;;;-1.88;64.07;97225.44;4967273;28;20549;-55
2023/02/05 08:02:20;;;;;;;0.50;0.50;;;;;;;-0.99;63.15;97357.88;4966498;28;20062;-55
2023/02/05 08:04:48;;;;;;;1.15;0.90;;;;;;;-1.11;62.50;97375.69;4965323;28;20054;-54
2023/02/05 08:07:15;;;;;;;2.92;2.45;;;;;;;-0.77;63.85;97371.75;4966432;28;20120;-54
2023/02/05 08:09:41;;;;;;;0.47;0.40;;;;;;;-0.84;62.39;97381.38;4966964;28;20085;-54
2023/02/05 08:12:08;;;;;;;0.40;0.40;;;;;;;-0.74;65.07;97348.59;4966755;28;20050;-56
2023/02/05 08:14:38;;;;;;;3.72;2.05;;;;;;;-0.98;61.88;97375.00;4964790;28;20047;-54
2023/02/05 08:17:05;;;;;;;0.82;0.60;;;;;;;-0.81;63.60;97381.59;4965328;28;20604;-53
2023/02/05 08:19:34;;;;;;;0.52;0.52;;;;;;;-1.16;62.62;97383.88;4967000;28;20047;-54
2023/02/05 08:22:01;;;;;;;0.30;0.30;;;;;;;-0.94;62.16;97386.91;4966560;28;20050;-55
2023/02/05 08:24:30;;;;;;;1.25;1.20;;;;;;;-0.64;60.22;97359.38;4966434;28;20061;-54
2023/02/05 08:26:57;;;;;;;3.38;1.23;;;;;;;-0.66;60.66;97394.19;4966742;28;20078;-55
2023/02/05 08:29:24;;;;;;;0.30;0.30;;;;;;;-0.58;60.86;97366.34;4966964;28;20051;-55
2023/02/05 08:31:50;;;;;;;1.17;0.85;;;;;;;-1.05;59.97;97345.44;4964341;28;20533;-54
2023/02/05 08:34:17;;;;;;;0.63;0.30;;;;;;;-0.56;60.02;97404.97;4946569;28;20522;-57
2023/02/05 08:36:46;;;;;;;0.50;0.50;;;;;;;-0.53;59.19;97404.38;4947070;28;20059;-54
2023/02/05 08:39:13;;;;;;;1.17;0.30;;;;;;;-0.88;60.47;97442.84;4947424;29;20423;-54
2023/02/05 08:41:40;;;;;;;2.47;1.00;;;;;;;-1.21;59.48;97390.19;4946633;28;20133;-53
2023/02/05 08:44:06;;;;;;;0.95;0.40;;;;;;;-1.10;60.96;97410.72;4960532;28;20062;-54
2023/02/05 08:46:33;;;;;;;0.73;0.70;;;;;;;-1.41;61.55;97424.88;4965680;28;20134;-54
2023/02/05 08:49:15;;;;;;;3.90;1.55;;;;;;;-1.70;60.57;97333.34;4966096;28;20062;-54
2023/02/05 08:51:42;;;;;;;2.05;1.05;;;;;;;-0.89;62.41;97433.06;4965379;28;20055;-53
2023/02/05 08:54:11;;;;;;;0.68;0.50;;;;;;;-1.09;60.61;97354.47;4966121;28;20113;-54
2023/02/05 08:56:39;;;;;;;1.48;0.77;;;;;;;-0.91;60.51;97432.53;4965518;28;20059;-54
2023/02/05 08:59:07;;;;;;;0.98;0.55;;;;;;;-1.22;61.90;97439.38;4966121;28;20051;-54
2023/02/05 09:01:36;;;;;;;0.65;0.50;;;;;;;-1.19;61.71;97445.06;4965490;28;20051;-53
2023/02/05 09:04:03;;;;;;;0.38;0.38;;;;;;;-0.85;61.82;97423.22;4965427;28;20109;-55
2023/02/05 09:06:30;;;;;;;0.73;0.45;;;;;;;-1.14;61.13;97338.22;4965388;28;20102;-54
2023/02/05 09:08:57;;;;;;;0.55;0.35;;;;;;;-0.45;59.91;97425.50;4965741;28;20156;-55
2023/02/05 09:11:25;;;;;;;0.40;0.40;;;;;;;-0.49;62.21;97432.63;4965495;28;20081;-53
2023/02/05 09:13:52;;;;;;;1.77;0.50;;;;;;;-0.61;60.95;97441.19;4964632;28;20174;-57
2023/02/05 09:16:19;;;;;;;1.45;0.57;;;;;;;-0.68;59.78;97439.94;4962052;28;20157;-54
2023/02/05 09:18:46;;;;;;;2.80;1.00;;;;;;;-0.46;57.41;97432.06;4965528;28;20053;-53
2023/02/05 09:21:12;;;;;;;0.73;0.57;;;;;;;-0.71;57.59;97416.03;4964038;28;20054;-56
2023/02/05 09:23:39;;;;;;;1.80;0.70;;;;;;;-0.72;56.77;97430.72;4965181;28;20043;-53
2023/02/05 09:26:07;;;;;;;2.35;1.23;;;;;;;-1.05;58.08;97434.31;4964254;28;20130;-55
2023/02/05 09:28:35;;;;;;;0.98;0.70;;;;;;;-0.71;58.16;97416.81;4965226;28;20478;-53
2023/02/05 09:31:07;;;;;;;1.25;0.70;;;;;;;-0.22;57.42;97430.91;4964893;28;20105;-53
2023/02/05 09:33:34;;;;;;;0.40;0.40;;;;;;;0.10;58.98;97517.34;4965972;28;20054;-57
2023/02/05 09:36:15;;;;;;;0.70;0.70;;;;;;;-0.23;56.05;97372.16;4965323;28;20125;-54
2023/02/05 09:38:44;;;;;;;2.75;0.82;;;;;;;-0.09;54.59;97424.75;4964047;28;20461;-54
2023/02/05 09:41:14;;;;;;;1.33;0.75;;;;;;;-0.39;55.15;97430.59;4964992;28;20536;-55
2023/02/05 09:43:49;;;;;;;1.17;0.65;;;;;;;-0.02;56.24;97421.69;4965202;28;20331;-54
2023/02/05 09:46:22;;;;;;;1.58;0.60;;;;;;;-0.26;55.27;97410.84;4965116;28;20586;-54
2023/02/05 09:48:57;;;;;;;;;;;;;;;0.02;57.43;97417.25;4965893;28;20137;-55
2023/02/05 09:51:42;;;;;;;0.70;0.70;;;;;;;-0.39;56.43;97372.63;4964999;28;19965;-55
2023/02/05 09:54:40;;;;;;;1.02;0.70;;;;;;;-0.19;56.17;97405.03;4965599;28;20051;-55
2023/02/05 09:57:13;;;;;;;1.27;1.00;;;;;;;-0.38;57.03;97415.09;4964459;28;20438;-55
2023/02/05 09:59:46;;;;;;;0.80;0.60;;;;;;;-0.78;57.18;97372.03;4965493;28;20047;-55
2023/02/05 10:02:25;;;;;;;0.40;0.30;;;;;;;-0.44;56.28;97430.66;4962606;28;20098;-54
2023/02/05 10:04:53;;;;;;;1.83;1.10;;;;;;;-0.13;57.27;97420.19;4965587;28;20051;-55
2023/02/05 10:07:57;;;;;;;1.65;1.10;;;;;;;-0.44;55.32;97418.94;4965166;28;20078;-54
2023/02/05 10:10:27;;;;;;;2.10;1.58;;;;;;;-0.52;57.54;97412.25;4965037;28;20574;-53
2023/02/05 10:13:12;;;;;;;0.47;0.40;;;;;;;-0.24;56.68;97396.94;4964989;28;20498;-54
2023/02/05 10:16:21;;;;;;;2.20;1.08;;;;;;;0.08;54.80;97420.72;4958978;28;20090;-54
2023/02/05 10:19:10;;;;;;;1.92;0.70;;;;;;;0.16;55.61;97428.25;4955337;28;20067;-53
2023/02/05 10:22:10;;;;;;;3.42;1.02;;;;;;;-0.98;55.43;97342.38;4964391;28;20113;-54
2023/02/05 10:24:49;;;;;;;0.63;0.50;;;;;;;-0.08;55.29;97439.19;4965107;28;20398;-54
2023/02/05 10:27:23;;;;;;;0.43;0.43;;;;;;;0.18;53.56;97426.81;4964468;28;20051;-55
2023/02/05 10:30:05;;;;;;;2.40;1.40;;;;;;;0.11;54.71;97415.50;4965392;28;20054;-56
2023/02/05 10:32:51;;;;;;;0.35;0.35;;;;;;;0.12;55.61;97436.19;4964814;28;20062;-55
2023/02/05 10:35:43;;;;;;;0.60;0.57;;;;;;;-0.14;54.25;97375.00;4967793;28;20126;-55
2023/02/05 10:38:20;;;;;;;1.63;0.50;;;;;;;0.35;54.53;97424.38;4963386;28;20055;-54
2023/02/05 10:40:50;;;;;;;0.40;0.40;;;;;;;0.56;54.78;97413.97;4968296;28;20514;-56
2023/02/05 10:43:35;;;;;;;1.05;0.73;;;;;;;0.52;55.47;97404.78;4968226;28;20503;-54
2023/02/05 10:46:03;;;;;;;5.18;0.50;;;;;;;0.40;55.72;97427.03;4968688;28;20142;-55
2023/02/05 10:49:05;;;;;;;0.50;0.40;;;;;;;0.38;54.42;97421.06;4968895;28;20061;-55
2023/02/05 10:51:40;;;;;;;0.35;0.35;;;;;;;0.45;53.95;97435.13;4967847;28;20058;-56
2023/02/05 10:54:18;;;;;;;0.93;0.80;;;;;;;0.11;54.54;97399.16;4968454;28;20137;-54
2023/02/05 10:56:44;;;;;;;2.35;0.57;;;;;;;-0.14;53.22;97405.75;4968355;28;20079;-53
2023/02/05 10:59:19;;;;;;;0.70;0.65;;;;;;;-0.16;53.78;97393.56;4968349;28;20063;-54
2023/02/05 11:01:47;;;;;;;2.22;0.77;;;;;;;0.20;54.46;97440.97;4967577;28;20063;-55
2023/02/05 11:04:40;;;;;;;1.08;0.60;;;;;;;0.25;54.46;97424.56;4968167;28;20055;-53
2023/02/05 11:07:21;;;;;;;1.30;0.80;;;;;;;-0.38;54.99;97325.28;4967776;28;20584;-55
2023/02/05 11:09:48;;;;;;;0.63;0.50;;;;;;;0.25;53.96;97449.06;4968426;28;20163;-57
2023/02/05 11:12:31;;;;;;;0.82;0.50;;;;;;;0.20;54.83;97462.75;4968062;28;20062;-53
2023/02/05 11:14:59;;;;;;;;;;;;;;;0.25;55.43;97432.72;4968028;28;20419;-53
2023/02/05 11:17:35;;;;;;;1.65;1.52;;;;;;;-0.20;55.15;97397.97;4967574;28;19925;-54
2023/02/05 11:20:17;;;;;;;2.17;0.93;;;;;;;0.07;55.32;97463.47;4968194;28;20051;-54
2023/02/05 11:22:47;;;;;;;0.77;0.60;;;;;;;-0.21;55.63;97445.34;4967324;28;20485;-53
2023/02/05 11:25:17;;;;;;;2.42;0.70;;;;;;;0.23;55.48;97451.28;4967576;28;20051;-55
2023/02/05 11:27:55;;;;;;;1.55;1.15;;;;;;;0.28;55.22;97459.38;4967691;28;20125;-54
2023/02/05 11:30:24;;;;;;;3.60;1.15;;;;;;;-0.82;55.26;97392.78;4965803;28;20596;-54
2023/02/05 11:33:20;;;;;;;0.65;0.65;;;;;;;-0.31;57.14;97462.59;4966352;28;20055;-54
2023/02/05 11:35:54;;;;;;;3.50;0.77;;;;;;;-0.50;56.27;97471.81;4966732;28;20062;-55
2023/02/05 11:38:28;;;;;;;1.17;0.90;;;;;;;-0.72;56.27;97460.63;4967171;28;20485;-56
2023/02/05 11:40:59;;;;;;;0.40;0.40;;;;;;;-0.36;56.91;97459.13;4967222;28;20094;-54
2023/02/05 11:43:30;;;;;;;2.90;0.90;;;;;;;-0.31;56.82;97440.00;4966683;28;20517;-55
2023/02/05 11:45:59;;;;;;;1.05;0.95;;;;;;;-0.19;55.15;97454.03;4966491;28;20585;-54
2023/02/05 11:48:38;;;;;;;1.65;0.40;;;;;;;-0.42;56.93;97430.34;4966903;28;20081;-54
2023/02/05 11:51:08;;;;;;;1.75;0.73;;;;;;;-0.12;56.71;97449.03;4967311;28;20082;-56
2023/02/05 11:53:36;;;;;;;0.52;0.52;;;;;;;-0.11;56.78;97440.56;4967253;28;20058;-54
2023/02/05 11:56:10;;;;;;;1.80;0.95;;;;;;;-0.01;57.68;97439.63;4966982;28;20062;-54
2023/02/05 11:58:37;;;;;;;1.13;1.02;;;;;;;-0.10;56.42;97450.38;4967031;28;20066;-56